メインページ
METAR-TAF:

METAR-TAF

空港 :

デトロイト, ミシガン州, アメリカ合衆国

緯度: 42-14-12N, 経度: 083-31-34W, 海抜: 218m

現時点の気象観測

当レポートは10分前の17:08(UTC)に作成
北西の風 6kt
気温 27°C
湿度 70%
気圧 1015 hPa
視程: 16.1km
高度2100ftの雲はほとんどない
高度3400ftの千切れ雲あり

METAR: KYIP 211708Z 31006KT 10SM FEW021 BKN034 27/21 A2997 RMK AO2 T02720211

時間: 13:18 (17:18 UTC)

予報

当レポートは2時間8分前の15:10(UTC)に作成
予報は21日の 15時(UTC)から 22日の 12時(UTC)まで有効
変向風 4kt
視程: 10km
高度2000ftの雲は散在している
高度6000ftの千切れ雲あり
高度25000ftの千切れ雲あり
近辺でにわか雨
21日の 15時(UTC)から 21日の 17時(UTC)まで一時的に
高度1800ftの千切れ雲あり
高度6000ftの千切れ雲あり
高度25000ftの曇り
21日の 1700時(UTC)から
北/北東の風 5kt
視程: 10km
高度4500ftの千切れ雲あり
高度10000ftの曇り
21日の 2100時(UTC)から
北東の風 6kt
視程: 10km
高度4500ftの千切れ雲あり, 積乱雲.
高度10000ftの千切れ雲あり
近辺で激しい雷雨
22日の 0100時(UTC)から
変向風 3kt
視程: 10km
高度10000ftの千切れ雲あり
高度25000ftの曇り

TAF: KYIP 211510Z 2115/2212 VRB04KT P6SM VCSH SCT020 BKN060 BKN250 TEMPO 2115/2117 BKN018 BKN060 OVC250 FM211700 03005KT P6SM BKN045 OVC100 FM212100 04006KT P6SM VCTS BKN045CB BKN100 FM220100 VRB03KT P6SM BKN100 OVC250

4,000以上の空港の気象観測と天気予報(METAR報とTAF報)

利用可能な観測所は地図上に黄色い丸と赤い丸で示す。

丸の上にカーソルを重ねると観測所名を参照できる。

次にクリックすると気象観測と天気予報を参照できる。

マップの切り替え:黒色「×」印の緑ボタンをクリックして拡大、「-」印の緑ボタンをクリックして縮小、緑色の三角印をクリックして隣りの地図に切り替え


METAR-TAF: